sensor_id;sensor_type;location;lat;lon;timestamp;P1;durP1;ratioP1;P2;durP2;ratioP2
52534;SDS011;38443;53.164;5.802;2022-07-23T00:01:56;10.18;;;6.20;;
52534;SDS011;38443;53.164;5.802;2022-07-23T00:04:22;10.02;;;6.03;;
52534;SDS011;38443;53.164;5.802;2022-07-23T00:06:47;8.85;;;6.10;;
52534;SDS011;38443;53.164;5.802;2022-07-23T00:09:12;9.73;;;6.22;;
52534;SDS011;38443;53.164;5.802;2022-07-23T00:11:38;11.07;;;6.88;;
52534;SDS011;38443;53.164;5.802;2022-07-23T00:14:03;14.43;;;6.65;;
52534;SDS011;38443;53.164;5.802;2022-07-23T00:16:29;12.77;;;6.10;;
52534;SDS011;38443;53.164;5.802;2022-07-23T00:18:54;12.38;;;6.82;;
52534;SDS011;38443;53.164;5.802;2022-07-23T00:21:19;19.10;;;7.05;;
52534;SDS011;38443;53.164;5.802;2022-07-23T00:23:45;12.85;;;6.60;;
52534;SDS011;38443;53.164;5.802;2022-07-23T00:26:10;12.27;;;6.72;;
52534;SDS011;38443;53.164;5.802;2022-07-23T00:28:35;10.40;;;6.63;;
52534;SDS011;38443;53.164;5.802;2022-07-23T00:31:01;9.95;;;6.13;;
52534;SDS011;38443;53.164;5.802;2022-07-23T00:33:26;9.50;;;5.97;;
52534;SDS011;38443;53.164;5.802;2022-07-23T00:35:52;9.60;;;6.15;;
52534;SDS011;38443;53.164;5.802;2022-07-23T00:38:17;15.57;;;6.50;;
52534;SDS011;38443;53.164;5.802;2022-07-23T00:40:42;11.43;;;6.25;;
52534;SDS011;38443;53.164;5.802;2022-07-23T00:43:08;8.75;;;5.53;;
52534;SDS011;38443;53.164;5.802;2022-07-23T00:45:33;12.70;;;5.88;;
52534;SDS011;38443;53.164;5.802;2022-07-23T00:47:59;13.40;;;6.38;;
52534;SDS011;38443;53.164;5.802;2022-07-23T00:50:25;11.05;;;6.50;;
52534;SDS011;38443;53.164;5.802;2022-07-23T00:52:50;8.82;;;6.35;;
52534;SDS011;38443;53.164;5.802;2022-07-23T00:55:17;8.20;;;5.78;;
52534;SDS011;38443;53.164;5.802;2022-07-23T00:57:43;9.05;;;6.38;;
52534;SDS011;38443;53.164;5.802;2022-07-23T01:00:12;10.80;;;5.72;;
52534;SDS011;38443;53.164;5.802;2022-07-23T01:02:39;10.20;;;5.95;;
52534;SDS011;38443;53.164;5.802;2022-07-23T01:05:05;9.45;;;6.38;;
52534;SDS011;38443;53.164;5.802;2022-07-23T01:07:31;9.05;;;6.60;;
52534;SDS011;38443;53.164;5.802;2022-07-23T01:09:58;12.27;;;6.68;;
52534;SDS011;38443;53.164;5.802;2022-07-23T01:12:24;9.27;;;6.28;;
52534;SDS011;38443;53.164;5.802;2022-07-23T01:14:59;10.10;;;6.70;;
52534;SDS011;38443;53.164;5.802;2022-07-23T01:17:25;12.32;;;6.82;;
52534;SDS011;38443;53.164;5.802;2022-07-23T01:19:51;11.75;;;7.15;;
52534;SDS011;38443;53.164;5.802;2022-07-23T01:22:20;9.98;;;6.35;;
52534;SDS011;38443;53.164;5.802;2022-07-23T01:24:45;11.65;;;6.72;;
52534;SDS011;38443;53.164;5.802;2022-07-23T01:27:11;12.55;;;5.78;;
52534;SDS011;38443;53.164;5.802;2022-07-23T01:29:37;9.07;;;6.20;;
52534;SDS011;38443;53.164;5.802;2022-07-23T01:32:03;10.25;;;6.50;;
52534;SDS011;38443;53.164;5.802;2022-07-23T01:34:29;9.38;;;5.57;;
52534;SDS011;38443;53.164;5.802;2022-07-23T01:36:54;11.05;;;6.32;;
52534;SDS011;38443;53.164;5.802;2022-07-23T01:39:19;8.68;;;6.45;;
52534;SDS011;38443;53.164;5.802;2022-07-23T01:41:45;11.30;;;6.32;;
52534;SDS011;38443;53.164;5.802;2022-07-23T01:44:11;12.75;;;6.38;;
52534;SDS011;38443;53.164;5.802;2022-07-23T01:46:38;9.95;;;6.00;;
52534;SDS011;38443;53.164;5.802;2022-07-23T01:49:03;9.85;;;6.18;;
52534;SDS011;38443;53.164;5.802;2022-07-23T01:51:29;13.73;;;6.80;;
52534;SDS011;38443;53.164;5.802;2022-07-23T01:53:55;9.10;;;6.38;;
52534;SDS011;38443;53.164;5.802;2022-07-23T01:56:20;10.23;;;6.78;;
52534;SDS011;38443;53.164;5.802;2022-07-23T01:58:46;9.50;;;6.50;;
52534;SDS011;38443;53.164;5.802;2022-07-23T02:01:13;11.15;;;6.25;;
52534;SDS011;38443;53.164;5.802;2022-07-23T02:03:38;14.13;;;6.90;;
52534;SDS011;38443;53.164;5.802;2022-07-23T02:06:04;9.60;;;5.80;;
52534;SDS011;38443;53.164;5.802;2022-07-23T02:08:29;11.82;;;5.90;;
52534;SDS011;38443;53.164;5.802;2022-07-23T02:10:55;10.25;;;5.50;;
52534;SDS011;38443;53.164;5.802;2022-07-23T02:13:20;8.95;;;5.55;;
52534;SDS011;38443;53.164;5.802;2022-07-23T02:15:46;12.63;;;5.80;;
52534;SDS011;38443;53.164;5.802;2022-07-23T02:18:12;10.07;;;5.60;;
52534;SDS011;38443;53.164;5.802;2022-07-23T02:20:37;9.82;;;5.70;;
52534;SDS011;38443;53.164;5.802;2022-07-23T02:23:03;11.10;;;6.30;;
52534;SDS011;38443;53.164;5.802;2022-07-23T02:25:29;11.88;;;5.63;;
52534;SDS011;38443;53.164;5.802;2022-07-23T02:27:54;10.45;;;5.30;;
52534;SDS011;38443;53.164;5.802;2022-07-23T02:30:20;9.20;;;5.85;;
52534;SDS011;38443;53.164;5.802;2022-07-23T02:32:45;10.90;;;5.03;;
52534;SDS011;38443;53.164;5.802;2022-07-23T02:35:11;14.13;;;5.57;;
52534;SDS011;38443;53.164;5.802;2022-07-23T02:37:36;7.57;;;5.22;;
52534;SDS011;38443;53.164;5.802;2022-07-23T02:40:01;8.98;;;5.85;;
52534;SDS011;38443;53.164;5.802;2022-07-23T02:42:27;8.35;;;4.90;;
52534;SDS011;38443;53.164;5.802;2022-07-23T02:47:18;8.43;;;5.43;;
52534;SDS011;38443;53.164;5.802;2022-07-23T02:49:43;8.23;;;4.60;;
52534;SDS011;38443;53.164;5.802;2022-07-23T02:52:08;7.47;;;4.85;;
52534;SDS011;38443;53.164;5.802;2022-07-23T02:54:35;9.10;;;5.60;;
52534;SDS011;38443;53.164;5.802;2022-07-23T02:57:01;11.10;;;5.20;;
52534;SDS011;38443;53.164;5.802;2022-07-23T03:01:52;9.70;;;5.43;;
52534;SDS011;38443;53.164;5.802;2022-07-23T03:04:18;11.30;;;5.60;;
52534;SDS011;38443;53.164;5.802;2022-07-23T03:09:08;7.43;;;4.70;;
52534;SDS011;38443;53.164;5.802;2022-07-23T03:11:34;10.75;;;5.47;;
52534;SDS011;38443;53.164;5.802;2022-07-23T03:14:00;8.07;;;4.88;;
52534;SDS011;38443;53.164;5.802;2022-07-23T03:16:25;9.77;;;5.18;;
52534;SDS011;38443;53.164;5.802;2022-07-23T03:18:50;11.10;;;5.80;;
52534;SDS011;38443;53.164;5.802;2022-07-23T03:21:15;7.38;;;4.97;;
52534;SDS011;38443;53.164;5.802;2022-07-23T03:26:06;9.73;;;5.38;;
52534;SDS011;38443;53.164;5.802;2022-07-23T03:28:31;9.05;;;5.65;;
52534;SDS011;38443;53.164;5.802;2022-07-23T03:30:57;8.07;;;4.85;;
52534;SDS011;38443;53.164;5.802;2022-07-23T03:35:48;9.80;;;5.85;;
52534;SDS011;38443;53.164;5.802;2022-07-23T03:38:14;9.38;;;5.55;;
52534;SDS011;38443;53.164;5.802;2022-07-23T03:40:40;8.38;;;5.55;;
52534;SDS011;38443;53.164;5.802;2022-07-23T03:45:31;10.35;;;5.80;;
52534;SDS011;38443;53.164;5.802;2022-07-23T03:47:57;8.68;;;4.90;;
52534;SDS011;38443;53.164;5.802;2022-07-23T03:52:48;8.02;;;5.25;;
52534;SDS011;38443;53.164;5.802;2022-07-23T03:55:13;9.25;;;5.28;;
52534;SDS011;38443;53.164;5.802;2022-07-23T03:57:39;9.75;;;5.38;;
52534;SDS011;38443;53.164;5.802;2022-07-23T04:02:32;10.10;;;5.80;;
52534;SDS011;38443;53.164;5.802;2022-07-23T04:07:23;9.48;;;5.88;;
52534;SDS011;38443;53.164;5.802;2022-07-23T04:09:48;11.90;;;6.63;;
52534;SDS011;38443;53.164;5.802;2022-07-23T04:12:14;9.32;;;5.60;;
52534;SDS011;38443;53.164;5.802;2022-07-23T04:17:04;9.70;;;5.93;;
52534;SDS011;38443;53.164;5.802;2022-07-23T04:21:55;13.07;;;6.20;;
52534;SDS011;38443;53.164;5.802;2022-07-23T04:24:21;12.15;;;6.18;;
52534;SDS011;38443;53.164;5.802;2022-07-23T04:29:12;10.57;;;5.88;;
52534;SDS011;38443;53.164;5.802;2022-07-23T04:31:37;12.30;;;6.97;;
52534;SDS011;38443;53.164;5.802;2022-07-23T04:34:03;9.65;;;5.97;;
52534;SDS011;38443;53.164;5.802;2022-07-23T04:38:54;9.80;;;6.05;;
52534;SDS011;38443;53.164;5.802;2022-07-23T04:41:19;9.05;;;5.97;;
52534;SDS011;38443;53.164;5.802;2022-07-23T04:46:10;13.50;;;6.30;;
52534;SDS011;38443;53.164;5.802;2022-07-23T04:48:36;10.38;;;5.97;;
52534;SDS011;38443;53.164;5.802;2022-07-23T04:51:02;10.70;;;6.22;;
52534;SDS011;38443;53.164;5.802;2022-07-23T04:53:28;8.60;;;5.68;;
52534;SDS011;38443;53.164;5.802;2022-07-23T04:58:18;8.23;;;5.65;;
52534;SDS011;38443;53.164;5.802;2022-07-23T05:00:44;7.50;;;5.45;;
52534;SDS011;38443;53.164;5.802;2022-07-23T05:03:09;9.35;;;5.40;;
52534;SDS011;38443;53.164;5.802;2022-07-23T05:08:00;9.23;;;5.35;;
52534;SDS011;38443;53.164;5.802;2022-07-23T05:10:26;8.23;;;5.22;;
52534;SDS011;38443;53.164;5.802;2022-07-23T05:12:51;9.05;;;5.53;;
52534;SDS011;38443;53.164;5.802;2022-07-23T05:15:17;7.85;;;5.32;;
52534;SDS011;38443;53.164;5.802;2022-07-23T05:17:42;7.43;;;5.03;;
52534;SDS011;38443;53.164;5.802;2022-07-23T05:20:07;7.40;;;4.68;;
52534;SDS011;38443;53.164;5.802;2022-07-23T05:22:33;6.95;;;4.97;;
52534;SDS011;38443;53.164;5.802;2022-07-23T05:24:58;7.90;;;5.00;;
52534;SDS011;38443;53.164;5.802;2022-07-23T05:27:24;10.55;;;5.70;;
52534;SDS011;38443;53.164;5.802;2022-07-23T05:29:49;10.20;;;5.43;;
52534;SDS011;38443;53.164;5.802;2022-07-23T05:32:14;9.35;;;5.15;;
52534;SDS011;38443;53.164;5.802;2022-07-23T05:34:40;9.30;;;4.57;;
52534;SDS011;38443;53.164;5.802;2022-07-23T05:37:05;8.77;;;5.10;;
52534;SDS011;38443;53.164;5.802;2022-07-23T05:39:31;7.88;;;5.32;;
52534;SDS011;38443;53.164;5.802;2022-07-23T05:41:56;11.13;;;8.02;;
52534;SDS011;38443;53.164;5.802;2022-07-23T05:44:22;8.23;;;4.70;;
52534;SDS011;38443;53.164;5.802;2022-07-23T05:46:47;6.53;;;4.60;;
52534;SDS011;38443;53.164;5.802;2022-07-23T05:49:12;5.25;;;3.83;;
52534;SDS011;38443;53.164;5.802;2022-07-23T05:51:38;7.88;;;4.72;;
52534;SDS011;38443;53.164;5.802;2022-07-23T05:54:03;6.75;;;3.97;;
52534;SDS011;38443;53.164;5.802;2022-07-23T05:56:29;6.07;;;4.05;;
52534;SDS011;38443;53.164;5.802;2022-07-23T05:58:54;6.07;;;4.10;;
52534;SDS011;38443;53.164;5.802;2022-07-23T06:01:19;9.48;;;4.47;;
52534;SDS011;38443;53.164;5.802;2022-07-23T06:03:45;6.70;;;4.03;;
52534;SDS011;38443;53.164;5.802;2022-07-23T06:06:10;7.22;;;3.80;;
52534;SDS011;38443;53.164;5.802;2022-07-23T06:08:35;4.88;;;3.20;;
52534;SDS011;38443;53.164;5.802;2022-07-23T06:11:01;4.18;;;2.78;;
52534;SDS011;38443;53.164;5.802;2022-07-23T06:13:26;4.55;;;2.30;;
52534;SDS011;38443;53.164;5.802;2022-07-23T06:15:52;3.63;;;2.10;;
52534;SDS011;38443;53.164;5.802;2022-07-23T06:18:17;5.03;;;2.13;;
52534;SDS011;38443;53.164;5.802;2022-07-23T06:20:42;3.42;;;2.28;;
52534;SDS011;38443;53.164;5.802;2022-07-23T06:23:08;4.60;;;2.05;;
52534;SDS011;38443;53.164;5.802;2022-07-23T06:25:33;3.85;;;2.30;;
52534;SDS011;38443;53.164;5.802;2022-07-23T06:27:58;2.75;;;2.15;;
52534;SDS011;38443;53.164;5.802;2022-07-23T06:30:25;2.42;;;1.73;;
52534;SDS011;38443;53.164;5.802;2022-07-23T06:32:50;2.25;;;1.40;;
52534;SDS011;38443;53.164;5.802;2022-07-23T06:35:16;3.17;;;1.60;;
52534;SDS011;38443;53.164;5.802;2022-07-23T06:37:41;2.35;;;1.80;;
52534;SDS011;38443;53.164;5.802;2022-07-23T06:40:07;3.38;;;1.80;;
52534;SDS011;38443;53.164;5.802;2022-07-23T06:42:33;5.57;;;2.47;;
52534;SDS011;38443;53.164;5.802;2022-07-23T06:45:01;6.05;;;3.65;;
52534;SDS011;38443;53.164;5.802;2022-07-23T06:47:48;2.30;;;1.80;;
52534;SDS011;38443;53.164;5.802;2022-07-23T06:50:13;2.03;;;1.30;;
52534;SDS011;38443;53.164;5.802;2022-07-23T06:52:38;1.90;;;1.40;;
52534;SDS011;38443;53.164;5.802;2022-07-23T06:55:04;1.63;;;1.50;;
52534;SDS011;38443;53.164;5.802;2022-07-23T06:57:30;1.45;;;1.20;;
52534;SDS011;38443;53.164;5.802;2022-07-23T06:59:55;3.30;;;1.25;;
52534;SDS011;38443;53.164;5.802;2022-07-23T07:02:20;1.88;;;1.33;;
52534;SDS011;38443;53.164;5.802;2022-07-23T07:04:46;1.13;;;1.05;;
52534;SDS011;38443;53.164;5.802;2022-07-23T07:07:11;2.03;;;1.48;;
52534;SDS011;38443;53.164;5.802;2022-07-23T07:09:37;1.80;;;1.10;;
52534;SDS011;38443;53.164;5.802;2022-07-23T07:12:03;1.45;;;1.10;;
52534;SDS011;38443;53.164;5.802;2022-07-23T07:14:28;2.03;;;1.10;;
52534;SDS011;38443;53.164;5.802;2022-07-23T07:16:54;2.17;;;1.15;;
52534;SDS011;38443;53.164;5.802;2022-07-23T07:19:19;2.67;;;1.65;;
52534;SDS011;38443;53.164;5.802;2022-07-23T07:21:44;1.15;;;1.05;;
52534;SDS011;38443;53.164;5.802;2022-07-23T07:24:10;2.65;;;1.40;;
52534;SDS011;38443;53.164;5.802;2022-07-23T07:26:35;1.25;;;1.10;;
52534;SDS011;38443;53.164;5.802;2022-07-23T07:29:02;3.25;;;1.52;;
52534;SDS011;38443;53.164;5.802;2022-07-23T07:31:27;1.90;;;1.30;;
52534;SDS011;38443;53.164;5.802;2022-07-23T07:33:53;4.90;;;1.40;;
52534;SDS011;38443;53.164;5.802;2022-07-23T07:36:18;4.22;;;1.27;;
52534;SDS011;38443;53.164;5.802;2022-07-23T07:38:43;1.80;;;1.20;;
52534;SDS011;38443;53.164;5.802;2022-07-23T07:41:09;1.90;;;1.52;;
52534;SDS011;38443;53.164;5.802;2022-07-23T07:43:35;4.07;;;1.27;;
52534;SDS011;38443;53.164;5.802;2022-07-23T07:46:01;3.95;;;1.20;;
52534;SDS011;38443;53.164;5.802;2022-07-23T07:48:28;1.83;;;1.10;;
52534;SDS011;38443;53.164;5.802;2022-07-23T07:50:53;3.35;;;1.30;;
52534;SDS011;38443;53.164;5.802;2022-07-23T07:53:18;4.35;;;1.50;;
52534;SDS011;38443;53.164;5.802;2022-07-23T07:55:44;1.20;;;1.10;;
52534;SDS011;38443;53.164;5.802;2022-07-23T07:58:09;1.40;;;1.30;;
52534;SDS011;38443;53.164;5.802;2022-07-23T08:00:34;1.48;;;1.20;;
52534;SDS011;38443;53.164;5.802;2022-07-23T08:03:00;1.55;;;1.20;;
52534;SDS011;38443;53.164;5.802;2022-07-23T08:05:26;2.97;;;1.52;;
52534;SDS011;38443;53.164;5.802;2022-07-23T08:07:57;2.42;;;1.50;;
52534;SDS011;38443;53.164;5.802;2022-07-23T08:10:25;3.55;;;1.80;;
52534;SDS011;38443;53.164;5.802;2022-07-23T08:12:52;5.43;;;2.95;;
52534;SDS011;38443;53.164;5.802;2022-07-23T08:15:20;2.42;;;1.50;;
52534;SDS011;38443;53.164;5.802;2022-07-23T08:17:47;2.03;;;1.15;;
52534;SDS011;38443;53.164;5.802;2022-07-23T08:20:13;4.57;;;1.88;;
52534;SDS011;38443;53.164;5.802;2022-07-23T08:25:17;3.38;;;1.48;;
52534;SDS011;38443;53.164;5.802;2022-07-23T08:27:46;2.88;;;2.00;;
52534;SDS011;38443;53.164;5.802;2022-07-23T08:30:12;3.08;;;2.28;;
52534;SDS011;38443;53.164;5.802;2022-07-23T08:32:47;2.17;;;1.58;;
52534;SDS011;38443;53.164;5.802;2022-07-23T08:35:18;4.53;;;1.70;;
52534;SDS011;38443;53.164;5.802;2022-07-23T08:37:47;2.78;;;1.60;;
52534;SDS011;38443;53.164;5.802;2022-07-23T08:40:12;1.75;;;1.40;;
52534;SDS011;38443;53.164;5.802;2022-07-23T08:42:38;1.65;;;1.40;;
52534;SDS011;38443;53.164;5.802;2022-07-23T08:45:04;2.60;;;1.58;;
52534;SDS011;38443;53.164;5.802;2022-07-23T08:47:32;2.40;;;1.55;;
52534;SDS011;38443;53.164;5.802;2022-07-23T08:49:59;2.22;;;1.40;;
52534;SDS011;38443;53.164;5.802;2022-07-23T08:52:25;1.95;;;1.70;;
52534;SDS011;38443;53.164;5.802;2022-07-23T08:54:51;3.10;;;1.48;;
52534;SDS011;38443;53.164;5.802;2022-07-23T08:57:17;4.18;;;2.55;;
52534;SDS011;38443;53.164;5.802;2022-07-23T08:59:43;7.90;;;3.38;;
52534;SDS011;38443;53.164;5.802;2022-07-23T09:02:08;8.02;;;2.80;;
52534;SDS011;38443;53.164;5.802;2022-07-23T09:04:34;1.95;;;1.50;;
52534;SDS011;38443;53.164;5.802;2022-07-23T09:06:59;2.33;;;2.13;;
52534;SDS011;38443;53.164;5.802;2022-07-23T09:09:26;2.22;;;1.80;;
52534;SDS011;38443;53.164;5.802;2022-07-23T09:12:05;2.55;;;1.90;;
52534;SDS011;38443;53.164;5.802;2022-07-23T09:14:42;4.38;;;1.70;;
52534;SDS011;38443;53.164;5.802;2022-07-23T09:17:14;2.70;;;1.70;;
52534;SDS011;38443;53.164;5.802;2022-07-23T09:19:42;4.38;;;1.90;;
52534;SDS011;38443;53.164;5.802;2022-07-23T09:25:02;2.35;;;1.80;;
52534;SDS011;38443;53.164;5.802;2022-07-23T09:30:11;3.28;;;1.80;;
52534;SDS011;38443;53.164;5.802;2022-07-23T09:32:41;3.78;;;1.58;;
52534;SDS011;38443;53.164;5.802;2022-07-23T09:35:06;2.70;;;1.60;;
52534;SDS011;38443;53.164;5.802;2022-07-23T09:37:32;1.67;;;1.50;;
52534;SDS011;38443;53.164;5.802;2022-07-23T09:40:06;2.10;;;1.50;;
52534;SDS011;38443;53.164;5.802;2022-07-23T09:42:34;2.63;;;1.60;;
52534;SDS011;38443;53.164;5.802;2022-07-23T09:45:00;2.10;;;1.58;;
52534;SDS011;38443;53.164;5.802;2022-07-23T09:47:30;1.85;;;1.52;;
52534;SDS011;38443;53.164;5.802;2022-07-23T09:52:44;2.80;;;1.90;;
52534;SDS011;38443;53.164;5.802;2022-07-23T09:55:12;3.13;;;1.83;;
52534;SDS011;38443;53.164;5.802;2022-07-23T09:57:37;2.25;;;1.60;;
52534;SDS011;38443;53.164;5.802;2022-07-23T10:00:06;3.70;;;2.22;;
52534;SDS011;38443;53.164;5.802;2022-07-23T10:02:37;3.67;;;1.83;;
52534;SDS011;38443;53.164;5.802;2022-07-23T10:05:03;4.53;;;1.75;;
52534;SDS011;38443;53.164;5.802;2022-07-23T10:07:31;2.72;;;1.60;;
52534;SDS011;38443;53.164;5.802;2022-07-23T10:09:59;3.33;;;1.80;;
52534;SDS011;38443;53.164;5.802;2022-07-23T10:12:25;3.97;;;1.67;;
52534;SDS011;38443;53.164;5.802;2022-07-23T10:14:53;4.00;;;1.80;;
52534;SDS011;38443;53.164;5.802;2022-07-23T10:17:20;2.97;;;1.77;;
52534;SDS011;38443;53.164;5.802;2022-07-23T10:19:45;3.65;;;1.90;;
52534;SDS011;38443;53.164;5.802;2022-07-23T10:22:12;3.53;;;2.00;;
52534;SDS011;38443;53.164;5.802;2022-07-23T10:24:59;3.95;;;2.20;;
52534;SDS011;38443;53.164;5.802;2022-07-23T10:34:01;11.70;;;2.10;;
52534;SDS011;38443;53.164;5.802;2022-07-23T10:36:42;3.47;;;1.63;;
52534;SDS011;38443;53.164;5.802;2022-07-23T10:39:26;5.53;;;1.90;;
52534;SDS011;38443;53.164;5.802;2022-07-23T10:44:44;3.60;;;2.03;;
52534;SDS011;38443;53.164;5.802;2022-07-23T10:47:12;3.30;;;1.90;;
52534;SDS011;38443;53.164;5.802;2022-07-23T10:50:19;2.60;;;1.70;;
52534;SDS011;38443;53.164;5.802;2022-07-23T10:57:58;2.67;;;1.80;;
52534;SDS011;38443;53.164;5.802;2022-07-23T11:00:25;3.47;;;2.20;;
52534;SDS011;38443;53.164;5.802;2022-07-23T11:02:52;2.60;;;1.80;;
52534;SDS011;38443;53.164;5.802;2022-07-23T11:05:21;2.92;;;1.77;;
52534;SDS011;38443;53.164;5.802;2022-07-23T11:16:04;3.10;;;2.33;;
52534;SDS011;38443;53.164;5.802;2022-07-23T11:34:44;4.68;;;2.03;;
52534;SDS011;38443;53.164;5.802;2022-07-23T11:39:57;3.10;;;1.70;;
52534;SDS011;38443;53.164;5.802;2022-07-23T11:42:24;2.92;;;2.03;;
52534;SDS011;38443;53.164;5.802;2022-07-23T11:44:49;3.65;;;2.10;;
52534;SDS011;38443;53.164;5.802;2022-07-23T11:47:15;5.43;;;1.95;;
52534;SDS011;38443;53.164;5.802;2022-07-23T11:49:54;4.75;;;1.95;;
52534;SDS011;38443;53.164;5.802;2022-07-23T11:52:21;5.10;;;3.03;;
52534;SDS011;38443;53.164;5.802;2022-07-23T11:54:54;3.97;;;2.78;;
52534;SDS011;38443;53.164;5.802;2022-07-23T11:57:25;3.22;;;2.38;;
52534;SDS011;38443;53.164;5.802;2022-07-23T11:59:54;4.25;;;2.53;;
52534;SDS011;38443;53.164;5.802;2022-07-23T12:02:22;2.22;;;1.98;;
52534;SDS011;38443;53.164;5.802;2022-07-23T12:04:48;3.28;;;2.13;;
52534;SDS011;38443;53.164;5.802;2022-07-23T12:07:29;3.58;;;1.75;;
52534;SDS011;38443;53.164;5.802;2022-07-23T12:12:47;3.05;;;2.30;;
52534;SDS011;38443;53.164;5.802;2022-07-23T12:15:14;3.10;;;2.40;;
52534;SDS011;38443;53.164;5.802;2022-07-23T12:17:43;4.43;;;2.53;;
52534;SDS011;38443;53.164;5.802;2022-07-23T12:20:12;3.38;;;2.20;;
52534;SDS011;38443;53.164;5.802;2022-07-23T12:22:49;2.70;;;2.13;;
52534;SDS011;38443;53.164;5.802;2022-07-23T12:25:19;2.60;;;2.10;;
52534;SDS011;38443;53.164;5.802;2022-07-23T12:27:46;3.20;;;2.00;;
52534;SDS011;38443;53.164;5.802;2022-07-23T12:30:44;2.40;;;2.10;;
52534;SDS011;38443;53.164;5.802;2022-07-23T12:33:53;3.38;;;2.15;;
52534;SDS011;38443;53.164;5.802;2022-07-23T12:36:03;3.58;;;2.03;;
52534;SDS011;38443;53.164;5.802;2022-07-23T12:41:22;5.82;;;3.50;;
52534;SDS011;38443;53.164;5.802;2022-07-23T12:43:48;6.15;;;4.30;;
52534;SDS011;38443;53.164;5.802;2022-07-23T12:46:17;2.70;;;2.17;;
52534;SDS011;38443;53.164;5.802;2022-07-23T12:54:09;4.97;;;2.58;;
52534;SDS011;38443;53.164;5.802;2022-07-23T12:56:35;2.83;;;2.03;;
52534;SDS011;38443;53.164;5.802;2022-07-23T12:59:09;3.28;;;2.60;;
52534;SDS011;38443;53.164;5.802;2022-07-23T13:01:37;3.28;;;2.50;;
52534;SDS011;38443;53.164;5.802;2022-07-23T13:04:10;3.90;;;2.20;;
52534;SDS011;38443;53.164;5.802;2022-07-23T13:06:48;3.35;;;2.50;;
52534;SDS011;38443;53.164;5.802;2022-07-23T13:09:25;5.55;;;2.70;;
52534;SDS011;38443;53.164;5.802;2022-07-23T13:11:55;3.95;;;2.40;;
52534;SDS011;38443;53.164;5.802;2022-07-23T13:14:22;3.42;;;2.60;;
52534;SDS011;38443;53.164;5.802;2022-07-23T13:16:49;5.90;;;2.65;;
52534;SDS011;38443;53.164;5.802;2022-07-23T13:19:16;3.85;;;2.78;;
52534;SDS011;38443;53.164;5.802;2022-07-23T13:21:41;4.15;;;2.80;;
52534;SDS011;38443;53.164;5.802;2022-07-23T13:24:08;4.82;;;2.58;;
52534;SDS011;38443;53.164;5.802;2022-07-23T13:26:34;4.80;;;2.40;;
52534;SDS011;38443;53.164;5.802;2022-07-23T13:29:01;2.50;;;2.30;;
52534;SDS011;38443;53.164;5.802;2022-07-23T13:31:26;3.95;;;2.90;;
52534;SDS011;38443;53.164;5.802;2022-07-23T13:33:51;6.88;;;2.90;;
52534;SDS011;38443;53.164;5.802;2022-07-23T13:36:17;7.82;;;2.83;;
52534;SDS011;38443;53.164;5.802;2022-07-23T13:38:42;4.38;;;2.92;;
52534;SDS011;38443;53.164;5.802;2022-07-23T13:41:08;4.20;;;3.15;;
52534;SDS011;38443;53.164;5.802;2022-07-23T13:43:33;4.78;;;2.72;;
52534;SDS011;38443;53.164;5.802;2022-07-23T13:45:59;4.05;;;2.55;;
52534;SDS011;38443;53.164;5.802;2022-07-23T13:48:24;3.20;;;2.75;;
52534;SDS011;38443;53.164;5.802;2022-07-23T13:50:51;4.90;;;2.90;;
52534;SDS011;38443;53.164;5.802;2022-07-23T13:53:18;6.22;;;2.90;;
52534;SDS011;38443;53.164;5.802;2022-07-23T13:55:45;3.75;;;2.83;;
52534;SDS011;38443;53.164;5.802;2022-07-23T13:58:12;5.05;;;2.60;;
52534;SDS011;38443;53.164;5.802;2022-07-23T14:00:39;5.25;;;3.08;;
52534;SDS011;38443;53.164;5.802;2022-07-23T14:03:10;5.22;;;3.30;;
52534;SDS011;38443;53.164;5.802;2022-07-23T14:05:35;5.30;;;3.05;;
52534;SDS011;38443;53.164;5.802;2022-07-23T14:08:02;4.80;;;3.08;;
52534;SDS011;38443;53.164;5.802;2022-07-23T14:10:28;3.95;;;3.33;;
52534;SDS011;38443;53.164;5.802;2022-07-23T14:12:54;7.05;;;3.13;;
52534;SDS011;38443;53.164;5.802;2022-07-23T14:15:21;4.05;;;2.63;;
52534;SDS011;38443;53.164;5.802;2022-07-23T14:17:48;4.13;;;3.00;;
52534;SDS011;38443;53.164;5.802;2022-07-23T14:20:13;6.05;;;3.30;;
52534;SDS011;38443;53.164;5.802;2022-07-23T14:22:39;4.05;;;3.05;;
52534;SDS011;38443;53.164;5.802;2022-07-23T14:25:05;5.68;;;3.28;;
52534;SDS011;38443;53.164;5.802;2022-07-23T14:27:32;3.35;;;2.65;;
52534;SDS011;38443;53.164;5.802;2022-07-23T14:29:58;4.45;;;3.30;;
52534;SDS011;38443;53.164;5.802;2022-07-23T14:32:24;3.72;;;3.10;;
52534;SDS011;38443;53.164;5.802;2022-07-23T14:34:50;4.72;;;2.92;;
52534;SDS011;38443;53.164;5.802;2022-07-23T14:37:16;5.07;;;3.00;;
52534;SDS011;38443;53.164;5.802;2022-07-23T14:39:41;4.57;;;3.45;;
52534;SDS011;38443;53.164;5.802;2022-07-23T14:42:08;5.22;;;3.35;;
52534;SDS011;38443;53.164;5.802;2022-07-23T14:44:35;7.75;;;3.88;;
52534;SDS011;38443;53.164;5.802;2022-07-23T14:47:01;4.65;;;3.22;;
52534;SDS011;38443;53.164;5.802;2022-07-23T14:49:29;4.88;;;3.55;;
52534;SDS011;38443;53.164;5.802;2022-07-23T14:51:55;4.95;;;3.67;;
52534;SDS011;38443;53.164;5.802;2022-07-23T14:54:20;6.97;;;3.25;;
52534;SDS011;38443;53.164;5.802;2022-07-23T14:56:46;8.18;;;3.35;;
52534;SDS011;38443;53.164;5.802;2022-07-23T14:59:12;5.68;;;2.92;;
52534;SDS011;38443;53.164;5.802;2022-07-23T15:01:37;5.03;;;3.30;;
52534;SDS011;38443;53.164;5.802;2022-07-23T15:04:06;4.32;;;3.25;;
52534;SDS011;38443;53.164;5.802;2022-07-23T15:06:32;7.43;;;3.90;;
52534;SDS011;38443;53.164;5.802;2022-07-23T15:08:58;5.90;;;3.40;;
52534;SDS011;38443;53.164;5.802;2022-07-23T15:11:25;4.55;;;3.00;;
52534;SDS011;38443;53.164;5.802;2022-07-23T15:13:56;3.67;;;2.88;;
52534;SDS011;38443;53.164;5.802;2022-07-23T15:16:21;3.88;;;3.08;;
52534;SDS011;38443;53.164;5.802;2022-07-23T15:18:47;3.25;;;2.58;;
52534;SDS011;38443;53.164;5.802;2022-07-23T15:21:12;5.25;;;3.08;;
52534;SDS011;38443;53.164;5.802;2022-07-23T15:23:37;3.92;;;2.55;;
52534;SDS011;38443;53.164;5.802;2022-07-23T15:26:04;2.85;;;2.28;;
52534;SDS011;38443;53.164;5.802;2022-07-23T15:28:31;3.97;;;2.60;;
52534;SDS011;38443;53.164;5.802;2022-07-23T15:30:56;4.35;;;2.70;;
52534;SDS011;38443;53.164;5.802;2022-07-23T15:33:22;4.45;;;2.70;;
52534;SDS011;38443;53.164;5.802;2022-07-23T15:35:47;4.68;;;2.80;;
52534;SDS011;38443;53.164;5.802;2022-07-23T15:38:13;5.22;;;2.67;;
52534;SDS011;38443;53.164;5.802;2022-07-23T15:40:39;4.28;;;2.58;;
52534;SDS011;38443;53.164;5.802;2022-07-23T15:43:04;5.53;;;2.67;;
52534;SDS011;38443;53.164;5.802;2022-07-23T15:45:30;3.33;;;2.38;;
52534;SDS011;38443;53.164;5.802;2022-07-23T15:47:56;4.93;;;2.17;;
52534;SDS011;38443;53.164;5.802;2022-07-23T15:50:22;3.45;;;2.20;;
52534;SDS011;38443;53.164;5.802;2022-07-23T15:52:48;5.80;;;2.50;;
52534;SDS011;38443;53.164;5.802;2022-07-23T15:55:14;5.95;;;4.07;;
52534;SDS011;38443;53.164;5.802;2022-07-23T15:57:39;9.27;;;6.93;;
52534;SDS011;38443;53.164;5.802;2022-07-23T16:00:05;6.88;;;4.78;;
52534;SDS011;38443;53.164;5.802;2022-07-23T16:02:31;10.13;;;7.13;;
52534;SDS011;38443;53.164;5.802;2022-07-23T16:04:57;4.68;;;2.40;;
52534;SDS011;38443;53.164;5.802;2022-07-23T16:07:22;21.92;;;12.52;;
52534;SDS011;38443;53.164;5.802;2022-07-23T16:09:47;60.35;;;29.65;;
52534;SDS011;38443;53.164;5.802;2022-07-23T16:12:13;6.03;;;4.38;;
52534;SDS011;38443;53.164;5.802;2022-07-23T16:14:39;9.00;;;6.18;;
52534;SDS011;38443;53.164;5.802;2022-07-23T16:17:05;4.68;;;2.58;;
52534;SDS011;38443;53.164;5.802;2022-07-23T16:19:30;73.22;;;49.33;;
52534;SDS011;38443;53.164;5.802;2022-07-23T16:21:56;56.15;;;41.13;;
52534;SDS011;38443;53.164;5.802;2022-07-23T16:24:21;19.95;;;14.13;;
52534;SDS011;38443;53.164;5.802;2022-07-23T16:26:47;31.95;;;19.52;;